sensor_id;sensor_type;location;lat;lon;timestamp;P1;durP1;ratioP1;P2;durP2;ratioP2
1693;SDS011;844;47.058;15.472;2022-11-15T00:02:24;66.00;;;47.00;;
1693;SDS011;844;47.058;15.472;2022-11-15T00:04:54;65.40;;;48.23;;
1693;SDS011;844;47.058;15.472;2022-11-15T00:07:24;61.13;;;45.43;;
1693;SDS011;844;47.058;15.472;2022-11-15T00:10:15;68.33;;;50.60;;
1693;SDS011;844;47.058;15.472;2022-11-15T00:12:46;71.87;;;48.50;;
1693;SDS011;844;47.058;15.472;2022-11-15T00:15:16;75.53;;;48.60;;
1693;SDS011;844;47.058;15.472;2022-11-15T00:17:49;73.57;;;50.57;;
1693;SDS011;844;47.058;15.472;2022-11-15T00:20:19;65.10;;;48.17;;
1693;SDS011;844;47.058;15.472;2022-11-15T00:22:48;63.23;;;44.70;;
1693;SDS011;844;47.058;15.472;2022-11-15T00:25:17;57.90;;;42.90;;
1693;SDS011;844;47.058;15.472;2022-11-15T00:27:47;64.63;;;47.87;;
1693;SDS011;844;47.058;15.472;2022-11-15T00:30:18;72.97;;;47.60;;
1693;SDS011;844;47.058;15.472;2022-11-15T00:32:49;65.00;;;43.20;;
1693;SDS011;844;47.058;15.472;2022-11-15T00:35:19;65.00;;;48.13;;
1693;SDS011;844;47.058;15.472;2022-11-15T00:37:50;63.73;;;46.20;;
1693;SDS011;844;47.058;15.472;2022-11-15T00:40:21;60.67;;;44.80;;
1693;SDS011;844;47.058;15.472;2022-11-15T00:42:50;62.90;;;44.37;;
1693;SDS011;844;47.058;15.472;2022-11-15T00:45:20;65.27;;;46.10;;
1693;SDS011;844;47.058;15.472;2022-11-15T00:47:50;68.17;;;48.17;;
1693;SDS011;844;47.058;15.472;2022-11-15T00:50:20;64.23;;;46.23;;
1693;SDS011;844;47.058;15.472;2022-11-15T00:52:50;63.37;;;47.27;;
1693;SDS011;844;47.058;15.472;2022-11-15T00:55:19;63.50;;;47.73;;
1693;SDS011;844;47.058;15.472;2022-11-15T00:57:49;63.77;;;46.40;;
1693;SDS011;844;47.058;15.472;2022-11-15T01:00:18;70.83;;;47.93;;
1693;SDS011;844;47.058;15.472;2022-11-15T01:02:48;67.90;;;47.13;;
1693;SDS011;844;47.058;15.472;2022-11-15T01:05:19;75.70;;;50.03;;
1693;SDS011;844;47.058;15.472;2022-11-15T01:07:50;70.33;;;49.77;;
1693;SDS011;844;47.058;15.472;2022-11-15T01:10:21;67.07;;;47.23;;
1693;SDS011;844;47.058;15.472;2022-11-15T01:12:52;75.87;;;48.60;;
1693;SDS011;844;47.058;15.472;2022-11-15T01:15:22;67.30;;;49.53;;
1693;SDS011;844;47.058;15.472;2022-11-15T01:17:51;72.00;;;47.93;;
1693;SDS011;844;47.058;15.472;2022-11-15T01:20:23;65.20;;;47.73;;
1693;SDS011;844;47.058;15.472;2022-11-15T01:22:52;69.83;;;45.10;;
1693;SDS011;844;47.058;15.472;2022-11-15T01:25:22;72.77;;;51.03;;
1693;SDS011;844;47.058;15.472;2022-11-15T01:27:52;66.07;;;46.73;;
1693;SDS011;844;47.058;15.472;2022-11-15T01:30:21;66.83;;;48.73;;
1693;SDS011;844;47.058;15.472;2022-11-15T01:32:50;72.57;;;47.70;;
1693;SDS011;844;47.058;15.472;2022-11-15T01:35:20;74.33;;;50.17;;
1693;SDS011;844;47.058;15.472;2022-11-15T01:37:51;75.33;;;51.23;;
1693;SDS011;844;47.058;15.472;2022-11-15T01:40:20;67.80;;;46.93;;
1693;SDS011;844;47.058;15.472;2022-11-15T01:42:50;80.63;;;51.80;;
1693;SDS011;844;47.058;15.472;2022-11-15T01:45:20;69.83;;;47.20;;
1693;SDS011;844;47.058;15.472;2022-11-15T01:47:51;77.03;;;49.50;;
1693;SDS011;844;47.058;15.472;2022-11-15T01:50:24;62.70;;;46.30;;
1693;SDS011;844;47.058;15.472;2022-11-15T01:52:56;65.37;;;47.63;;
1693;SDS011;844;47.058;15.472;2022-11-15T01:55:26;74.97;;;52.57;;
1693;SDS011;844;47.058;15.472;2022-11-15T01:57:57;68.23;;;47.20;;
1693;SDS011;844;47.058;15.472;2022-11-15T02:00:32;67.43;;;48.53;;
1693;SDS011;844;47.058;15.472;2022-11-15T02:03:02;79.00;;;51.60;;
1693;SDS011;844;47.058;15.472;2022-11-15T02:05:34;68.93;;;47.60;;
1693;SDS011;844;47.058;15.472;2022-11-15T02:08:04;69.63;;;45.57;;
1693;SDS011;844;47.058;15.472;2022-11-15T02:10:35;67.17;;;47.90;;
1693;SDS011;844;47.058;15.472;2022-11-15T02:13:07;72.27;;;47.43;;
1693;SDS011;844;47.058;15.472;2022-11-15T02:15:38;76.63;;;46.23;;
1693;SDS011;844;47.058;15.472;2022-11-15T02:18:15;66.33;;;47.13;;
1693;SDS011;844;47.058;15.472;2022-11-15T02:20:51;70.13;;;46.93;;
1693;SDS011;844;47.058;15.472;2022-11-15T02:26:56;70.93;;;48.17;;
1693;SDS011;844;47.058;15.472;2022-11-15T02:29:53;73.67;;;48.33;;
1693;SDS011;844;47.058;15.472;2022-11-15T02:32:34;71.30;;;46.33;;
1693;SDS011;844;47.058;15.472;2022-11-15T02:35:10;73.83;;;47.10;;
1693;SDS011;844;47.058;15.472;2022-11-15T02:37:45;71.93;;;46.47;;
1693;SDS011;844;47.058;15.472;2022-11-15T02:40:22;75.73;;;48.40;;
1693;SDS011;844;47.058;15.472;2022-11-15T02:43:00;64.33;;;44.23;;
1693;SDS011;844;47.058;15.472;2022-11-15T02:45:51;62.37;;;44.63;;
1693;SDS011;844;47.058;15.472;2022-11-15T02:48:23;69.53;;;48.13;;
1693;SDS011;844;47.058;15.472;2022-11-15T02:50:55;73.13;;;47.53;;
1693;SDS011;844;47.058;15.472;2022-11-15T02:53:24;64.90;;;46.70;;
1693;SDS011;844;47.058;15.472;2022-11-15T02:55:55;70.77;;;47.03;;
1693;SDS011;844;47.058;15.472;2022-11-15T03:01:20;63.83;;;45.60;;
1693;SDS011;844;47.058;15.472;2022-11-15T03:03:59;75.70;;;49.33;;
1693;SDS011;844;47.058;15.472;2022-11-15T03:06:35;65.43;;;47.10;;
1693;SDS011;844;47.058;15.472;2022-11-15T03:09:07;76.70;;;48.17;;
1693;SDS011;844;47.058;15.472;2022-11-15T03:11:41;62.73;;;44.37;;
1693;SDS011;844;47.058;15.472;2022-11-15T03:14:20;76.20;;;50.13;;
1693;SDS011;844;47.058;15.472;2022-11-15T03:16:55;74.93;;;49.20;;
1693;SDS011;844;47.058;15.472;2022-11-15T03:19:32;83.57;;;53.07;;
1693;SDS011;844;47.058;15.472;2022-11-15T03:22:06;78.17;;;47.17;;
1693;SDS011;844;47.058;15.472;2022-11-15T03:24:38;73.00;;;48.47;;
1693;SDS011;844;47.058;15.472;2022-11-15T03:27:08;70.60;;;51.10;;
1693;SDS011;844;47.058;15.472;2022-11-15T03:29:41;76.47;;;47.77;;
1693;SDS011;844;47.058;15.472;2022-11-15T03:32:13;75.30;;;48.30;;
1693;SDS011;844;47.058;15.472;2022-11-15T03:34:48;70.40;;;46.77;;
1693;SDS011;844;47.058;15.472;2022-11-15T03:37:20;71.47;;;48.67;;
1693;SDS011;844;47.058;15.472;2022-11-15T03:39:51;67.70;;;46.33;;
1693;SDS011;844;47.058;15.472;2022-11-15T03:42:21;64.17;;;45.47;;
1693;SDS011;844;47.058;15.472;2022-11-15T03:44:58;66.33;;;46.87;;
1693;SDS011;844;47.058;15.472;2022-11-15T03:47:31;63.00;;;46.23;;
1693;SDS011;844;47.058;15.472;2022-11-15T03:50:07;70.93;;;48.40;;
1693;SDS011;844;47.058;15.472;2022-11-15T03:52:39;64.20;;;46.27;;
1693;SDS011;844;47.058;15.472;2022-11-15T03:55:13;67.47;;;46.80;;
1693;SDS011;844;47.058;15.472;2022-11-15T03:57:49;69.10;;;48.00;;
1693;SDS011;844;47.058;15.472;2022-11-15T04:00:19;73.03;;;48.87;;
1693;SDS011;844;47.058;15.472;2022-11-15T04:02:49;76.47;;;50.57;;
1693;SDS011;844;47.058;15.472;2022-11-15T04:05:31;65.87;;;46.83;;
1693;SDS011;844;47.058;15.472;2022-11-15T04:08:00;73.30;;;48.87;;
1693;SDS011;844;47.058;15.472;2022-11-15T04:10:30;73.97;;;48.07;;
1693;SDS011;844;47.058;15.472;2022-11-15T04:13:01;75.60;;;48.60;;
1693;SDS011;844;47.058;15.472;2022-11-15T04:15:31;79.13;;;50.60;;
1693;SDS011;844;47.058;15.472;2022-11-15T04:18:00;81.23;;;52.80;;
1693;SDS011;844;47.058;15.472;2022-11-15T04:20:31;81.07;;;51.43;;
1693;SDS011;844;47.058;15.472;2022-11-15T04:23:19;69.07;;;45.80;;
1693;SDS011;844;47.058;15.472;2022-11-15T04:26:07;76.17;;;50.87;;
1693;SDS011;844;47.058;15.472;2022-11-15T04:28:41;69.63;;;48.63;;
1693;SDS011;844;47.058;15.472;2022-11-15T04:31:24;77.30;;;49.70;;
1693;SDS011;844;47.058;15.472;2022-11-15T04:33:54;79.37;;;51.57;;
1693;SDS011;844;47.058;15.472;2022-11-15T04:36:29;82.47;;;50.50;;
1693;SDS011;844;47.058;15.472;2022-11-15T04:39:16;74.63;;;48.73;;
1693;SDS011;844;47.058;15.472;2022-11-15T04:41:45;79.33;;;49.90;;
1693;SDS011;844;47.058;15.472;2022-11-15T04:44:15;80.40;;;49.00;;
1693;SDS011;844;47.058;15.472;2022-11-15T04:46:44;68.97;;;47.77;;
1693;SDS011;844;47.058;15.472;2022-11-15T04:49:14;77.10;;;49.80;;
1693;SDS011;844;47.058;15.472;2022-11-15T04:51:46;76.90;;;50.70;;
1693;SDS011;844;47.058;15.472;2022-11-15T04:54:16;82.40;;;51.80;;
1693;SDS011;844;47.058;15.472;2022-11-15T04:56:45;81.83;;;46.37;;
1693;SDS011;844;47.058;15.472;2022-11-15T04:59:15;79.30;;;49.93;;
1693;SDS011;844;47.058;15.472;2022-11-15T05:01:44;87.00;;;52.13;;
1693;SDS011;844;47.058;15.472;2022-11-15T05:04:14;86.17;;;51.13;;
1693;SDS011;844;47.058;15.472;2022-11-15T05:06:51;72.27;;;50.20;;
1693;SDS011;844;47.058;15.472;2022-11-15T05:09:20;78.97;;;50.03;;
1693;SDS011;844;47.058;15.472;2022-11-15T05:11:50;76.67;;;49.60;;
1693;SDS011;844;47.058;15.472;2022-11-15T05:14:21;82.23;;;49.20;;
1693;SDS011;844;47.058;15.472;2022-11-15T05:16:54;87.00;;;50.87;;
1693;SDS011;844;47.058;15.472;2022-11-15T05:19:24;66.83;;;45.97;;
1693;SDS011;844;47.058;15.472;2022-11-15T05:21:55;75.13;;;51.17;;
1693;SDS011;844;47.058;15.472;2022-11-15T05:24:24;87.30;;;53.27;;
1693;SDS011;844;47.058;15.472;2022-11-15T05:26:54;76.30;;;48.57;;
1693;SDS011;844;47.058;15.472;2022-11-15T05:29:23;79.73;;;48.23;;
1693;SDS011;844;47.058;15.472;2022-11-15T05:31:53;84.17;;;49.63;;
1693;SDS011;844;47.058;15.472;2022-11-15T05:34:23;77.33;;;51.30;;
1693;SDS011;844;47.058;15.472;2022-11-15T05:36:55;70.23;;;47.47;;
1693;SDS011;844;47.058;15.472;2022-11-15T05:39:24;77.43;;;48.87;;
1693;SDS011;844;47.058;15.472;2022-11-15T05:41:55;88.53;;;51.80;;
1693;SDS011;844;47.058;15.472;2022-11-15T05:44:35;83.87;;;51.23;;
1693;SDS011;844;47.058;15.472;2022-11-15T05:47:05;80.63;;;49.23;;
1693;SDS011;844;47.058;15.472;2022-11-15T05:49:37;78.73;;;51.07;;
1693;SDS011;844;47.058;15.472;2022-11-15T05:52:11;78.83;;;50.77;;
1693;SDS011;844;47.058;15.472;2022-11-15T05:54:44;76.93;;;49.83;;
1693;SDS011;844;47.058;15.472;2022-11-15T05:57:14;73.17;;;47.73;;
1693;SDS011;844;47.058;15.472;2022-11-15T05:59:44;72.00;;;48.40;;
1693;SDS011;844;47.058;15.472;2022-11-15T06:02:13;75.10;;;46.10;;
1693;SDS011;844;47.058;15.472;2022-11-15T06:04:43;81.67;;;47.60;;
1693;SDS011;844;47.058;15.472;2022-11-15T06:07:14;70.20;;;46.70;;
1693;SDS011;844;47.058;15.472;2022-11-15T06:09:43;70.53;;;48.20;;
1693;SDS011;844;47.058;15.472;2022-11-15T06:12:13;70.93;;;47.70;;
1693;SDS011;844;47.058;15.472;2022-11-15T06:14:42;79.00;;;46.30;;
1693;SDS011;844;47.058;15.472;2022-11-15T06:17:12;71.37;;;46.73;;
1693;SDS011;844;47.058;15.472;2022-11-15T06:19:41;63.43;;;42.70;;
1693;SDS011;844;47.058;15.472;2022-11-15T06:22:11;67.60;;;45.17;;
1693;SDS011;844;47.058;15.472;2022-11-15T06:24:42;72.27;;;46.67;;
1693;SDS011;844;47.058;15.472;2022-11-15T06:27:11;62.17;;;41.33;;
1693;SDS011;844;47.058;15.472;2022-11-15T06:29:41;65.57;;;42.57;;
1693;SDS011;844;47.058;15.472;2022-11-15T06:32:11;58.73;;;40.17;;
1693;SDS011;844;47.058;15.472;2022-11-15T06:34:40;61.20;;;40.77;;
1693;SDS011;844;47.058;15.472;2022-11-15T06:37:10;57.77;;;38.93;;
1693;SDS011;844;47.058;15.472;2022-11-15T06:39:41;60.07;;;41.47;;
1693;SDS011;844;47.058;15.472;2022-11-15T06:42:10;59.77;;;41.87;;
1693;SDS011;844;47.058;15.472;2022-11-15T06:44:40;59.37;;;42.40;;
1693;SDS011;844;47.058;15.472;2022-11-15T06:47:10;56.97;;;40.83;;
1693;SDS011;844;47.058;15.472;2022-11-15T06:49:39;53.10;;;36.47;;
1693;SDS011;844;47.058;15.472;2022-11-15T06:52:09;63.13;;;40.93;;
1693;SDS011;844;47.058;15.472;2022-11-15T06:54:40;57.83;;;37.90;;
1693;SDS011;844;47.058;15.472;2022-11-15T06:57:10;55.20;;;40.53;;
1693;SDS011;844;47.058;15.472;2022-11-15T06:59:42;59.63;;;38.80;;
1693;SDS011;844;47.058;15.472;2022-11-15T07:02:11;53.67;;;37.40;;
1693;SDS011;844;47.058;15.472;2022-11-15T07:04:41;56.40;;;38.47;;
1693;SDS011;844;47.058;15.472;2022-11-15T07:07:11;55.07;;;38.70;;
1693;SDS011;844;47.058;15.472;2022-11-15T07:09:42;53.17;;;36.07;;
1693;SDS011;844;47.058;15.472;2022-11-15T07:12:12;58.40;;;39.73;;
1693;SDS011;844;47.058;15.472;2022-11-15T07:14:41;58.20;;;38.07;;
1693;SDS011;844;47.058;15.472;2022-11-15T07:17:11;54.40;;;37.10;;
1693;SDS011;844;47.058;15.472;2022-11-15T07:19:41;54.63;;;38.87;;
1693;SDS011;844;47.058;15.472;2022-11-15T07:22:13;58.60;;;37.27;;
1693;SDS011;844;47.058;15.472;2022-11-15T07:24:44;60.67;;;40.93;;
1693;SDS011;844;47.058;15.472;2022-11-15T07:27:13;61.67;;;37.73;;
1693;SDS011;844;47.058;15.472;2022-11-15T07:29:47;56.87;;;40.00;;
1693;SDS011;844;47.058;15.472;2022-11-15T07:32:17;57.93;;;36.67;;
1693;SDS011;844;47.058;15.472;2022-11-15T07:34:47;60.80;;;38.70;;
1693;SDS011;844;47.058;15.472;2022-11-15T07:37:19;60.63;;;40.43;;
1693;SDS011;844;47.058;15.472;2022-11-15T07:39:50;56.10;;;40.57;;
1693;SDS011;844;47.058;15.472;2022-11-15T07:42:20;54.63;;;41.00;;
1693;SDS011;844;47.058;15.472;2022-11-15T07:45:12;64.47;;;45.60;;
1693;SDS011;844;47.058;15.472;2022-11-15T07:47:44;67.73;;;46.60;;
1693;SDS011;844;47.058;15.472;2022-11-15T07:50:16;68.40;;;44.40;;
1693;SDS011;844;47.058;15.472;2022-11-15T07:52:52;71.40;;;44.07;;
1693;SDS011;844;47.058;15.472;2022-11-15T07:55:24;66.03;;;43.53;;
1693;SDS011;844;47.058;15.472;2022-11-15T07:58:00;62.00;;;41.97;;
1693;SDS011;844;47.058;15.472;2022-11-15T08:00:33;66.00;;;42.37;;
1693;SDS011;844;47.058;15.472;2022-11-15T08:03:04;63.10;;;43.07;;
1693;SDS011;844;47.058;15.472;2022-11-15T08:05:34;57.10;;;41.90;;
1693;SDS011;844;47.058;15.472;2022-11-15T08:08:06;57.00;;;41.03;;
1693;SDS011;844;47.058;15.472;2022-11-15T08:10:38;64.50;;;41.50;;
1693;SDS011;844;47.058;15.472;2022-11-15T08:13:09;69.97;;;44.27;;
1693;SDS011;844;47.058;15.472;2022-11-15T08:15:39;59.37;;;41.07;;
1693;SDS011;844;47.058;15.472;2022-11-15T08:18:10;61.80;;;41.83;;
1693;SDS011;844;47.058;15.472;2022-11-15T08:20:41;69.20;;;43.40;;
1693;SDS011;844;47.058;15.472;2022-11-15T08:23:11;62.03;;;43.20;;
1693;SDS011;844;47.058;15.472;2022-11-15T08:25:42;73.10;;;46.80;;
1693;SDS011;844;47.058;15.472;2022-11-15T08:28:12;65.10;;;44.60;;
1693;SDS011;844;47.058;15.472;2022-11-15T08:30:43;70.00;;;45.80;;
1693;SDS011;844;47.058;15.472;2022-11-15T08:33:14;89.63;;;49.27;;
1693;SDS011;844;47.058;15.472;2022-11-15T08:35:43;79.87;;;45.73;;
1693;SDS011;844;47.058;15.472;2022-11-15T08:38:13;78.50;;;48.07;;
1693;SDS011;844;47.058;15.472;2022-11-15T08:40:44;73.67;;;45.30;;
1693;SDS011;844;47.058;15.472;2022-11-15T08:43:14;75.27;;;48.60;;
1693;SDS011;844;47.058;15.472;2022-11-15T08:45:45;85.73;;;50.97;;
1693;SDS011;844;47.058;15.472;2022-11-15T08:48:15;80.13;;;48.87;;
1693;SDS011;844;47.058;15.472;2022-11-15T08:50:44;72.07;;;47.67;;
1693;SDS011;844;47.058;15.472;2022-11-15T08:53:13;77.07;;;48.80;;
1693;SDS011;844;47.058;15.472;2022-11-15T08:55:45;83.53;;;48.33;;
1693;SDS011;844;47.058;15.472;2022-11-15T08:58:14;73.83;;;48.13;;
1693;SDS011;844;47.058;15.472;2022-11-15T09:00:44;88.80;;;50.47;;
1693;SDS011;844;47.058;15.472;2022-11-15T09:03:13;73.33;;;46.53;;
1693;SDS011;844;47.058;15.472;2022-11-15T09:05:44;90.97;;;51.33;;
1693;SDS011;844;47.058;15.472;2022-11-15T09:08:13;86.20;;;53.37;;
1693;SDS011;844;47.058;15.472;2022-11-15T09:11:04;77.40;;;48.93;;
1693;SDS011;844;47.058;15.472;2022-11-15T09:13:34;81.97;;;47.10;;
1693;SDS011;844;47.058;15.472;2022-11-15T09:16:05;82.57;;;51.33;;
1693;SDS011;844;47.058;15.472;2022-11-15T09:18:35;81.67;;;51.00;;
1693;SDS011;844;47.058;15.472;2022-11-15T09:21:04;96.67;;;50.87;;
1693;SDS011;844;47.058;15.472;2022-11-15T09:23:34;80.17;;;48.80;;
1693;SDS011;844;47.058;15.472;2022-11-15T09:26:05;76.40;;;48.03;;
1693;SDS011;844;47.058;15.472;2022-11-15T09:28:35;78.33;;;48.53;;
1693;SDS011;844;47.058;15.472;2022-11-15T09:31:08;84.03;;;49.43;;
1693;SDS011;844;47.058;15.472;2022-11-15T09:33:38;79.07;;;49.33;;
1693;SDS011;844;47.058;15.472;2022-11-15T09:36:08;85.27;;;49.70;;
1693;SDS011;844;47.058;15.472;2022-11-15T09:38:38;86.87;;;48.87;;
1693;SDS011;844;47.058;15.472;2022-11-15T09:44:33;73.10;;;47.50;;
1693;SDS011;844;47.058;15.472;2022-11-15T09:47:17;78.47;;;48.03;;
1693;SDS011;844;47.058;15.472;2022-11-15T09:49:59;78.37;;;44.80;;
1693;SDS011;844;47.058;15.472;2022-11-15T09:52:35;74.60;;;46.30;;
1693;SDS011;844;47.058;15.472;2022-11-15T09:55:07;82.20;;;45.70;;
1693;SDS011;844;47.058;15.472;2022-11-15T09:57:39;70.90;;;46.80;;
1693;SDS011;844;47.058;15.472;2022-11-15T10:00:13;79.03;;;45.77;;
1693;SDS011;844;47.058;15.472;2022-11-15T10:03:10;68.47;;;45.17;;
1693;SDS011;844;47.058;15.472;2022-11-15T10:05:42;71.30;;;47.07;;
1693;SDS011;844;47.058;15.472;2022-11-15T10:11:01;72.47;;;45.80;;
1693;SDS011;844;47.058;15.472;2022-11-15T10:13:52;63.27;;;44.00;;
1693;SDS011;844;47.058;15.472;2022-11-15T10:16:36;66.80;;;42.40;;
1693;SDS011;844;47.058;15.472;2022-11-15T10:19:33;61.77;;;42.30;;
1693;SDS011;844;47.058;15.472;2022-11-15T10:22:12;55.80;;;39.27;;
1693;SDS011;844;47.058;15.472;2022-11-15T10:25:00;70.83;;;44.40;;
1693;SDS011;844;47.058;15.472;2022-11-15T10:27:41;66.07;;;42.40;;
1693;SDS011;844;47.058;15.472;2022-11-15T10:30:13;64.53;;;44.33;;
1693;SDS011;844;47.058;15.472;2022-11-15T10:32:46;60.47;;;41.93;;
1693;SDS011;844;47.058;15.472;2022-11-15T10:35:19;59.70;;;41.13;;
1693;SDS011;844;47.058;15.472;2022-11-15T10:37:51;55.40;;;40.00;;
1693;SDS011;844;47.058;15.472;2022-11-15T10:40:24;51.40;;;38.33;;
1693;SDS011;844;47.058;15.472;2022-11-15T10:43:04;52.80;;;35.57;;
1693;SDS011;844;47.058;15.472;2022-11-15T10:45:40;52.50;;;35.60;;
1693;SDS011;844;47.058;15.472;2022-11-15T10:48:25;57.27;;;38.90;;
1693;SDS011;844;47.058;15.472;2022-11-15T10:50:55;61.60;;;38.47;;
1693;SDS011;844;47.058;15.472;2022-11-15T10:53:27;53.20;;;37.20;;
1693;SDS011;844;47.058;15.472;2022-11-15T10:56:00;53.37;;;37.07;;
1693;SDS011;844;47.058;15.472;2022-11-15T10:58:36;52.50;;;37.10;;
1693;SDS011;844;47.058;15.472;2022-11-15T11:01:11;52.10;;;37.03;;
1693;SDS011;844;47.058;15.472;2022-11-15T11:03:44;54.60;;;40.33;;
1693;SDS011;844;47.058;15.472;2022-11-15T11:06:14;50.60;;;36.97;;
1693;SDS011;844;47.058;15.472;2022-11-15T11:08:53;59.60;;;35.47;;
1693;SDS011;844;47.058;15.472;2022-11-15T11:11:24;49.80;;;36.13;;
1693;SDS011;844;47.058;15.472;2022-11-15T11:13:55;47.40;;;34.80;;
1693;SDS011;844;47.058;15.472;2022-11-15T11:16:42;51.20;;;34.50;;
1693;SDS011;844;47.058;15.472;2022-11-15T11:19:27;43.40;;;32.73;;
1693;SDS011;844;47.058;15.472;2022-11-15T11:22:09;50.57;;;35.50;;
1693;SDS011;844;47.058;15.472;2022-11-15T11:24:45;47.67;;;35.63;;
1693;SDS011;844;47.058;15.472;2022-11-15T11:27:25;41.50;;;32.23;;
1693;SDS011;844;47.058;15.472;2022-11-15T11:30:03;44.10;;;34.00;;
1693;SDS011;844;47.058;15.472;2022-11-15T11:32:40;40.47;;;31.30;;
1693;SDS011;844;47.058;15.472;2022-11-15T11:35:24;45.83;;;35.73;;
1693;SDS011;844;47.058;15.472;2022-11-15T11:38:00;43.67;;;34.40;;
1693;SDS011;844;47.058;15.472;2022-11-15T11:40:43;42.80;;;32.40;;
1693;SDS011;844;47.058;15.472;2022-11-15T11:43:23;49.53;;;33.13;;
1693;SDS011;844;47.058;15.472;2022-11-15T11:46:05;46.27;;;35.73;;
1693;SDS011;844;47.058;15.472;2022-11-15T11:48:46;52.00;;;35.63;;
1693;SDS011;844;47.058;15.472;2022-11-15T11:51:20;42.77;;;32.97;;
1693;SDS011;844;47.058;15.472;2022-11-15T11:53:54;45.20;;;33.77;;
1693;SDS011;844;47.058;15.472;2022-11-15T11:56:26;42.27;;;31.97;;
1693;SDS011;844;47.058;15.472;2022-11-15T11:58:59;45.83;;;33.50;;
1693;SDS011;844;47.058;15.472;2022-11-15T12:01:32;40.90;;;30.40;;
1693;SDS011;844;47.058;15.472;2022-11-15T12:04:05;32.73;;;28.00;;
1693;SDS011;844;47.058;15.472;2022-11-15T12:06:47;39.37;;;30.63;;
1693;SDS011;844;47.058;15.472;2022-11-15T12:09:21;38.87;;;30.27;;
1693;SDS011;844;47.058;15.472;2022-11-15T12:11:58;38.83;;;29.80;;
1693;SDS011;844;47.058;15.472;2022-11-15T12:14:32;37.43;;;28.17;;
1693;SDS011;844;47.058;15.472;2022-11-15T12:17:04;41.13;;;31.23;;
1693;SDS011;844;47.058;15.472;2022-11-15T12:19:35;36.77;;;29.77;;
1693;SDS011;844;47.058;15.472;2022-11-15T12:22:09;35.37;;;28.80;;
1693;SDS011;844;47.058;15.472;2022-11-15T12:24:41;34.73;;;28.77;;
1693;SDS011;844;47.058;15.472;2022-11-15T12:27:15;34.47;;;30.63;;
1693;SDS011;844;47.058;15.472;2022-11-15T12:29:52;36.47;;;29.60;;
1693;SDS011;844;47.058;15.472;2022-11-15T12:32:25;35.80;;;29.80;;
1693;SDS011;844;47.058;15.472;2022-11-15T12:34:55;41.13;;;31.80;;
1693;SDS011;844;47.058;15.472;2022-11-15T12:40:21;38.27;;;28.43;;
1693;SDS011;844;47.058;15.472;2022-11-15T12:46:10;39.43;;;31.10;;
1693;SDS011;844;47.058;15.472;2022-11-15T12:48:52;34.57;;;29.07;;
1693;SDS011;844;47.058;15.472;2022-11-15T12:55:00;37.50;;;28.27;;
1693;SDS011;844;47.058;15.472;2022-11-15T12:57:32;37.77;;;29.03;;
1693;SDS011;844;47.058;15.472;2022-11-15T13:03:16;43.77;;;29.70;;
1693;SDS011;844;47.058;15.472;2022-11-15T13:06:03;37.43;;;28.43;;
1693;SDS011;844;47.058;15.472;2022-11-15T13:08:39;30.70;;;25.87;;
1693;SDS011;844;47.058;15.472;2022-11-15T13:17:32;32.67;;;25.53;;
1693;SDS011;844;47.058;15.472;2022-11-15T13:20:15;34.17;;;26.90;;
1693;SDS011;844;47.058;15.472;2022-11-15T13:22:49;28.53;;;24.13;;
1693;SDS011;844;47.058;15.472;2022-11-15T13:25:27;34.83;;;27.80;;
1693;SDS011;844;47.058;15.472;2022-11-15T13:28:25;30.43;;;24.63;;
1693;SDS011;844;47.058;15.472;2022-11-15T13:31:01;32.23;;;24.80;;
1693;SDS011;844;47.058;15.472;2022-11-15T13:33:35;30.10;;;25.27;;
1693;SDS011;844;47.058;15.472;2022-11-15T13:36:06;29.13;;;26.03;;
1693;SDS011;844;47.058;15.472;2022-11-15T13:38:38;31.73;;;26.47;;
1693;SDS011;844;47.058;15.472;2022-11-15T13:41:13;24.83;;;22.10;;
1693;SDS011;844;47.058;15.472;2022-11-15T13:43:49;29.83;;;25.10;;
1693;SDS011;844;47.058;15.472;2022-11-15T13:46:20;28.63;;;22.20;;
1693;SDS011;844;47.058;15.472;2022-11-15T13:48:52;27.80;;;23.10;;
1693;SDS011;844;47.058;15.472;2022-11-15T13:51:37;24.30;;;21.70;;
1693;SDS011;844;47.058;15.472;2022-11-15T13:54:14;26.40;;;22.20;;
1693;SDS011;844;47.058;15.472;2022-11-15T13:56:47;25.97;;;21.97;;
1693;SDS011;844;47.058;15.472;2022-11-15T13:59:20;27.90;;;23.17;;
1693;SDS011;844;47.058;15.472;2022-11-15T14:01:58;24.37;;;21.60;;
1693;SDS011;844;47.058;15.472;2022-11-15T14:04:30;24.33;;;21.30;;
1693;SDS011;844;47.058;15.472;2022-11-15T14:07:14;24.27;;;21.07;;
1693;SDS011;844;47.058;15.472;2022-11-15T14:09:45;24.93;;;21.57;;
1693;SDS011;844;47.058;15.472;2022-11-15T14:12:23;22.70;;;20.30;;
1693;SDS011;844;47.058;15.472;2022-11-15T14:15:01;27.97;;;22.17;;
1693;SDS011;844;47.058;15.472;2022-11-15T14:17:47;24.83;;;22.10;;
1693;SDS011;844;47.058;15.472;2022-11-15T14:20:24;25.53;;;22.90;;
1693;SDS011;844;47.058;15.472;2022-11-15T14:22:58;28.63;;;23.30;;
1693;SDS011;844;47.058;15.472;2022-11-15T14:25:29;25.37;;;21.60;;
1693;SDS011;844;47.058;15.472;2022-11-15T14:28:12;27.00;;;21.90;;
1693;SDS011;844;47.058;15.472;2022-11-15T14:30:49;22.07;;;19.77;;
1693;SDS011;844;47.058;15.472;2022-11-15T14:33:23;25.37;;;21.80;;
1693;SDS011;844;47.058;15.472;2022-11-15T14:35:56;25.23;;;21.63;;
1693;SDS011;844;47.058;15.472;2022-11-15T14:38:26;22.43;;;20.10;;
1693;SDS011;844;47.058;15.472;2022-11-15T14:40:56;25.60;;;21.77;;
1693;SDS011;844;47.058;15.472;2022-11-15T14:59:08;27.53;;;24.50;;
1693;SDS011;844;47.058;15.472;2022-11-15T15:01:38;23.93;;;21.33;;
1693;SDS011;844;47.058;15.472;2022-11-15T15:04:08;21.13;;;19.00;;
1693;SDS011;844;47.058;15.472;2022-11-15T15:06:38;25.50;;;21.93;;
1693;SDS011;844;47.058;15.472;2022-11-15T15:09:07;23.60;;;21.10;;
1693;SDS011;844;47.058;15.472;2022-11-15T15:11:37;24.53;;;22.03;;
1693;SDS011;844;47.058;15.472;2022-11-15T15:14:07;24.27;;;20.27;;
1693;SDS011;844;47.058;15.472;2022-11-15T15:16:38;23.37;;;20.60;;
1693;SDS011;844;47.058;15.472;2022-11-15T15:19:07;23.43;;;20.53;;
1693;SDS011;844;47.058;15.472;2022-11-15T15:21:36;22.53;;;20.10;;
1693;SDS011;844;47.058;15.472;2022-11-15T15:24:07;29.07;;;22.30;;
1693;SDS011;844;47.058;15.472;2022-11-15T15:26:38;26.27;;;22.50;;
1693;SDS011;844;47.058;15.472;2022-11-15T15:29:07;22.63;;;20.27;;
1693;SDS011;844;47.058;15.472;2022-11-15T15:31:38;23.80;;;20.50;;
1693;SDS011;844;47.058;15.472;2022-11-15T15:34:07;27.50;;;21.67;;
1693;SDS011;844;47.058;15.472;2022-11-15T15:36:42;25.73;;;21.07;;
1693;SDS011;844;47.058;15.472;2022-11-15T15:39:12;26.20;;;20.90;;
1693;SDS011;844;47.058;15.472;2022-11-15T15:41:41;26.53;;;20.80;;
1693;SDS011;844;47.058;15.472;2022-11-15T15:44:11;22.60;;;20.20;;
1693;SDS011;844;47.058;15.472;2022-11-15T15:46:41;24.50;;;20.93;;
1693;SDS011;844;47.058;15.472;2022-11-15T15:49:10;22.63;;;20.20;;
1693;SDS011;844;47.058;15.472;2022-11-15T15:51:39;23.27;;;19.73;;
1693;SDS011;844;47.058;15.472;2022-11-15T15:54:08;24.33;;;20.73;;
1693;SDS011;844;47.058;15.472;2022-11-15T15:56:38;24.50;;;20.70;;
1693;SDS011;844;47.058;15.472;2022-11-15T15:59:07;23.47;;;20.30;;
1693;SDS011;844;47.058;15.472;2022-11-15T16:01:38;21.03;;;18.73;;
1693;SDS011;844;47.058;15.472;2022-11-15T16:04:07;25.83;;;19.07;;
1693;SDS011;844;47.058;15.472;2022-11-15T16:06:37;27.60;;;21.20;;
1693;SDS011;844;47.058;15.472;2022-11-15T16:09:12;21.47;;;17.20;;
1693;SDS011;844;47.058;15.472;2022-11-15T16:11:44;22.43;;;20.10;;